sensor_id;sensor_type;location;lat;lon;timestamp;pressure;altitude;pressure_sealevel;temperature;humidity
2036;BME280;23642;42.658;23.350;2023-04-08T00:01:26;54130.19;;;-146.31;65.83
2036;BME280;23642;42.658;23.350;2023-04-08T00:03:53;54105.41;;;-146.31;66.37
2036;BME280;23642;42.658;23.350;2023-04-08T00:06:20;54105.41;;;-146.31;65.70
2036;BME280;23642;42.658;23.350;2023-04-08T00:08:47;54117.78;;;-146.31;65.58
2036;BME280;23642;42.658;23.350;2023-04-08T00:11:14;54126.06;;;-146.31;65.99
2036;BME280;23642;42.658;23.350;2023-04-08T00:13:41;54101.28;;;-146.31;65.15
2036;BME280;23642;42.658;23.350;2023-04-08T00:16:08;54119.88;;;-146.31;65.50
2036;BME280;23642;42.658;23.350;2023-04-08T00:18:36;54132.25;;;-146.31;65.86
2036;BME280;23642;42.658;23.350;2023-04-08T00:21:03;54119.88;;;-146.31;66.11
2036;BME280;23642;42.658;23.350;2023-04-08T00:23:32;54080.63;;;-146.31;65.78
2036;BME280;23642;42.658;23.350;2023-04-08T00:25:59;54119.88;;;-146.31;66.24
2036;BME280;23642;42.658;23.350;2023-04-08T00:28:29;54113.66;;;-146.31;65.44
2036;BME280;23642;42.658;23.350;2023-04-08T00:30:56;54115.72;;;-146.31;64.65
2036;BME280;23642;42.658;23.350;2023-04-08T00:33:23;54134.31;;;-146.31;65.73
2036;BME280;23642;42.658;23.350;2023-04-08T00:35:51;54082.69;;;-146.31;67.05
2036;BME280;23642;42.658;23.350;2023-04-08T00:38:18;54117.78;;;-146.31;67.58
2036;BME280;23642;42.658;23.350;2023-04-08T00:40:45;54090.97;;;-146.31;67.75
2036;BME280;23642;42.658;23.350;2023-04-08T00:43:11;54053.78;;;-146.31;68.29
2036;BME280;23642;42.658;23.350;2023-04-08T00:45:41;54045.53;;;-146.31;67.57
2036;BME280;23642;42.658;23.350;2023-04-08T00:48:10;54047.59;;;-146.31;67.13
2036;BME280;23642;42.658;23.350;2023-04-08T00:50:37;54055.84;;;-146.31;68.05
2036;BME280;23642;42.658;23.350;2023-04-08T00:53:07;54018.69;;;-146.31;68.98
2036;BME280;23642;42.658;23.350;2023-04-08T00:55:34;54006.31;;;-146.31;69.44
2036;BME280;23642;42.658;23.350;2023-04-08T00:58:01;53991.84;;;-146.31;69.70
2036;BME280;23642;42.658;23.350;2023-04-08T01:00:29;54000.13;;;-146.31;70.83
2036;BME280;23642;42.658;23.350;2023-04-08T01:03:02;53948.50;;;-146.31;71.67
2036;BME280;23642;42.658;23.350;2023-04-08T01:05:35;53975.34;;;-146.31;71.84
2036;BME280;23642;42.658;23.350;2023-04-08T01:08:07;53965.03;;;-146.31;72.66
2036;BME280;23642;42.658;23.350;2023-04-08T01:10:38;53940.25;;;-146.31;72.98
2036;BME280;23642;42.658;23.350;2023-04-08T01:13:08;53923.72;;;-146.31;72.91
2036;BME280;23642;42.658;23.350;2023-04-08T01:15:38;53907.22;;;-146.31;73.43
2036;BME280;23642;42.658;23.350;2023-04-08T01:18:10;53940.25;;;-146.31;72.40
2036;BME280;23642;42.658;23.350;2023-04-08T01:20:38;53913.41;;;-146.31;72.49
2036;BME280;23642;42.658;23.350;2023-04-08T01:23:17;53892.75;;;-146.31;71.70
2036;BME280;23642;42.658;23.350;2023-04-08T01:25:48;53894.81;;;-146.31;71.03
2036;BME280;23642;42.658;23.350;2023-04-08T01:28:17;53896.88;;;-146.31;72.13
2036;BME280;23642;42.658;23.350;2023-04-08T01:30:46;53888.63;;;-146.31;72.00
2036;BME280;23642;42.658;23.350;2023-04-08T01:33:16;53915.47;;;-146.31;70.66
2036;BME280;23642;42.658;23.350;2023-04-08T01:35:44;53931.97;;;-146.31;70.57
2036;BME280;23642;42.658;23.350;2023-04-08T01:38:14;53907.22;;;-146.31;70.85
2036;BME280;23642;42.658;23.350;2023-04-08T01:40:43;53903.09;;;-146.31;70.33
2036;BME280;23642;42.658;23.350;2023-04-08T01:43:13;53884.50;;;-146.31;70.92
2036;BME280;23642;42.658;23.350;2023-04-08T01:45:41;53915.47;;;-146.31;70.58
2036;BME280;23642;42.658;23.350;2023-04-08T01:48:09;53931.97;;;-146.31;71.25
2036;BME280;23642;42.658;23.350;2023-04-08T01:50:39;53907.22;;;-146.31;71.14
2036;BME280;23642;42.658;23.350;2023-04-08T01:53:07;53851.47;;;-146.31;71.42
2036;BME280;23642;42.658;23.350;2023-04-08T01:55:35;53901.03;;;-146.31;71.54
2036;BME280;23642;42.658;23.350;2023-04-08T01:58:04;53872.13;;;-146.31;71.41
2036;BME280;23642;42.658;23.350;2023-04-08T02:00:35;53857.66;;;-146.31;71.50
2036;BME280;23642;42.658;23.350;2023-04-08T02:03:05;53834.94;;;-146.31;71.37
2036;BME280;23642;42.658;23.350;2023-04-08T02:05:35;53839.09;;;-146.31;70.29
2036;BME280;23642;42.658;23.350;2023-04-08T02:08:02;53847.34;;;-146.31;70.50
2036;BME280;23642;42.658;23.350;2023-04-08T02:10:29;53853.53;;;-146.31;70.51
2036;BME280;23642;42.658;23.350;2023-04-08T02:12:56;53857.66;;;-146.31;70.14
2036;BME280;23642;42.658;23.350;2023-04-08T02:15:25;53841.16;;;-146.31;68.68
2036;BME280;23642;42.658;23.350;2023-04-08T02:18:00;53890.69;;;-146.31;67.74
2036;BME280;23642;42.658;23.350;2023-04-08T02:20:37;53901.03;;;-146.31;67.57
2036;BME280;23642;42.658;23.350;2023-04-08T02:23:08;53882.44;;;-146.31;68.63
2036;BME280;23642;42.658;23.350;2023-04-08T02:25:37;53913.41;;;-146.31;67.53
2036;BME280;23642;42.658;23.350;2023-04-08T02:28:09;53896.88;;;-146.31;66.60
2036;BME280;23642;42.658;23.350;2023-04-08T02:30:41;53917.53;;;-146.31;66.45
2036;BME280;23642;42.658;23.350;2023-04-08T02:33:12;53940.25;;;-146.31;66.23
2036;BME280;23642;42.658;23.350;2023-04-08T02:35:41;53934.06;;;-146.31;65.85
2036;BME280;23642;42.658;23.350;2023-04-08T02:38:08;53915.47;;;-146.31;67.22
2036;BME280;23642;42.658;23.350;2023-04-08T02:40:36;53929.91;;;-146.31;66.21
2036;BME280;23642;42.658;23.350;2023-04-08T02:43:03;53960.88;;;-146.31;64.96
2036;BME280;23642;42.658;23.350;2023-04-08T02:45:31;53965.03;;;-146.31;64.20
2036;BME280;23642;42.658;23.350;2023-04-08T02:47:59;53979.47;;;-146.31;65.79
2036;BME280;23642;42.658;23.350;2023-04-08T02:50:27;53946.44;;;-146.31;66.27
2036;BME280;23642;42.658;23.350;2023-04-08T02:52:54;53956.75;;;-146.31;66.50
2036;BME280;23642;42.658;23.350;2023-04-08T02:55:24;53915.47;;;-146.31;66.96
2036;BME280;23642;42.658;23.350;2023-04-08T02:57:51;53960.88;;;-146.31;66.67
2036;BME280;23642;42.658;23.350;2023-04-08T03:00:18;53940.25;;;-146.31;66.25
2036;BME280;23642;42.658;23.350;2023-04-08T03:02:44;53954.69;;;-146.31;66.33
2036;BME280;23642;42.658;23.350;2023-04-08T03:05:11;53965.03;;;-146.31;65.91
2036;BME280;23642;42.658;23.350;2023-04-08T03:07:39;53958.81;;;-146.31;66.11
2036;BME280;23642;42.658;23.350;2023-04-08T03:10:07;53956.75;;;-146.31;65.63
2036;BME280;23642;42.658;23.350;2023-04-08T03:12:34;53944.38;;;-146.31;66.14
2036;BME280;23642;42.658;23.350;2023-04-08T03:15:04;53969.16;;;-146.31;66.55
2036;BME280;23642;42.658;23.350;2023-04-08T03:17:31;53969.16;;;-146.31;66.71
2036;BME280;23642;42.658;23.350;2023-04-08T03:19:59;53934.06;;;-146.31;66.01
2036;BME280;23642;42.658;23.350;2023-04-08T03:22:25;53954.69;;;-146.31;66.35
2036;BME280;23642;42.658;23.350;2023-04-08T03:24:53;53940.25;;;-146.31;66.90
2036;BME280;23642;42.658;23.350;2023-04-08T03:27:20;53958.81;;;-146.31;66.93
2036;BME280;23642;42.658;23.350;2023-04-08T03:29:47;53948.50;;;-146.31;67.64
2036;BME280;23642;42.658;23.350;2023-04-08T03:32:15;53965.03;;;-146.31;67.52
2036;BME280;23642;42.658;23.350;2023-04-08T03:34:41;53938.19;;;-146.31;68.17
2036;BME280;23642;42.658;23.350;2023-04-08T03:37:08;53948.50;;;-146.31;68.20
2036;BME280;23642;42.658;23.350;2023-04-08T03:39:35;53936.13;;;-146.31;68.23
2036;BME280;23642;42.658;23.350;2023-04-08T03:42:04;53929.91;;;-146.31;68.66
2036;BME280;23642;42.658;23.350;2023-04-08T03:44:31;53915.47;;;-146.31;68.33
2036;BME280;23642;42.658;23.350;2023-04-08T03:46:58;53925.78;;;-146.31;67.53
2036;BME280;23642;42.658;23.350;2023-04-08T03:49:24;53915.47;;;-146.31;68.38
2036;BME280;23642;42.658;23.350;2023-04-08T03:51:52;53909.28;;;-146.31;68.25
2036;BME280;23642;42.658;23.350;2023-04-08T03:54:19;53909.28;;;-146.31;68.62
2036;BME280;23642;42.658;23.350;2023-04-08T03:56:47;53911.34;;;-146.31;68.89
2036;BME280;23642;42.658;23.350;2023-04-08T03:59:18;53898.94;;;-146.31;68.78
2036;BME280;23642;42.658;23.350;2023-04-08T04:01:45;53898.94;;;-146.31;68.25
2036;BME280;23642;42.658;23.350;2023-04-08T04:04:12;53907.22;;;-146.31;68.34
2036;BME280;23642;42.658;23.350;2023-04-08T04:06:38;53892.75;;;-146.31;68.66
2036;BME280;23642;42.658;23.350;2023-04-08T04:09:05;53907.22;;;-146.31;69.03
2036;BME280;23642;42.658;23.350;2023-04-08T04:11:33;53901.03;;;-146.31;68.58
2036;BME280;23642;42.658;23.350;2023-04-08T04:14:02;53925.78;;;-146.31;68.34
2036;BME280;23642;42.658;23.350;2023-04-08T04:16:30;53898.94;;;-146.31;68.15
2036;BME280;23642;42.658;23.350;2023-04-08T04:18:57;53898.94;;;-146.31;67.47
2036;BME280;23642;42.658;23.350;2023-04-08T04:21:23;53915.47;;;-146.31;66.93
2036;BME280;23642;42.658;23.350;2023-04-08T04:23:52;53915.47;;;-146.31;67.55
2036;BME280;23642;42.658;23.350;2023-04-08T04:26:20;53894.81;;;-146.31;67.48
2036;BME280;23642;42.658;23.350;2023-04-08T04:28:47;53901.03;;;-146.31;66.69
2036;BME280;23642;42.658;23.350;2023-04-08T04:31:18;53942.31;;;-146.31;67.38
2036;BME280;23642;42.658;23.350;2023-04-08T04:33:49;53925.78;;;-146.31;66.19
2036;BME280;23642;42.658;23.350;2023-04-08T04:36:16;53917.53;;;-146.31;65.98
2036;BME280;23642;42.658;23.350;2023-04-08T04:38:44;53927.84;;;-146.31;65.69
2036;BME280;23642;42.658;23.350;2023-04-08T04:41:11;53915.47;;;-146.31;66.38
2036;BME280;23642;42.658;23.350;2023-04-08T04:43:38;53919.59;;;-146.31;66.28
2036;BME280;23642;42.658;23.350;2023-04-08T04:46:05;53907.22;;;-146.31;66.08
2036;BME280;23642;42.658;23.350;2023-04-08T04:48:33;53911.34;;;-146.31;65.68
2036;BME280;23642;42.658;23.350;2023-04-08T04:51:02;53940.25;;;-146.31;66.11
2036;BME280;23642;42.658;23.350;2023-04-08T04:53:29;53942.31;;;-146.31;65.45
2036;BME280;23642;42.658;23.350;2023-04-08T04:55:56;53958.81;;;-146.31;65.00
2036;BME280;23642;42.658;23.350;2023-04-08T04:58:25;53919.59;;;-146.31;64.76
2036;BME280;23642;42.658;23.350;2023-04-08T05:00:52;53931.97;;;-146.31;65.60
2036;BME280;23642;42.658;23.350;2023-04-08T05:03:20;53936.13;;;-146.31;65.60
2036;BME280;23642;42.658;23.350;2023-04-08T05:05:50;53927.84;;;-146.31;65.52
2036;BME280;23642;42.658;23.350;2023-04-08T05:08:19;53915.47;;;-146.31;64.06
2036;BME280;23642;42.658;23.350;2023-04-08T05:10:46;53915.47;;;-146.31;63.62
2036;BME280;23642;42.658;23.350;2023-04-08T05:13:15;53911.34;;;-146.31;63.33
2036;BME280;23642;42.658;23.350;2023-04-08T05:15:42;53925.78;;;-146.31;63.50
2036;BME280;23642;42.658;23.350;2023-04-08T05:18:11;53903.09;;;-146.31;64.25
2036;BME280;23642;42.658;23.350;2023-04-08T05:20:38;53876.25;;;-146.31;63.61
2036;BME280;23642;42.658;23.350;2023-04-08T05:23:05;53903.09;;;-146.31;63.50
2036;BME280;23642;42.658;23.350;2023-04-08T05:25:34;53925.78;;;-146.31;63.24
2036;BME280;23642;42.658;23.350;2023-04-08T05:28:01;53890.69;;;-146.31;61.86
2036;BME280;23642;42.658;23.350;2023-04-08T05:30:30;53907.22;;;-146.31;61.94
2036;BME280;23642;42.658;23.350;2023-04-08T05:32:57;53878.31;;;-146.31;61.65
2036;BME280;23642;42.658;23.350;2023-04-08T05:35:24;53882.44;;;-146.31;61.33
2036;BME280;23642;42.658;23.350;2023-04-08T05:37:51;53882.44;;;-146.31;60.25
2036;BME280;23642;42.658;23.350;2023-04-08T05:40:18;53872.13;;;-146.31;59.91
2036;BME280;23642;42.658;23.350;2023-04-08T05:42:46;53880.38;;;-146.31;60.06
2036;BME280;23642;42.658;23.350;2023-04-08T05:45:15;53843.22;;;-146.31;59.37
2036;BME280;23642;42.658;23.350;2023-04-08T05:47:42;53884.50;;;-146.31;58.41
2036;BME280;23642;42.658;23.350;2023-04-08T05:50:10;53872.13;;;-146.31;57.78
2036;BME280;23642;42.658;23.350;2023-04-08T05:52:41;53919.59;;;-146.31;57.23
2036;BME280;23642;42.658;23.350;2023-04-08T05:55:16;53898.94;;;-146.31;57.15
2036;BME280;23642;42.658;23.350;2023-04-08T05:57:43;53909.28;;;-146.31;56.30
2036;BME280;23642;42.658;23.350;2023-04-08T06:00:12;53962.94;;;-146.31;56.66
2036;BME280;23642;42.658;23.350;2023-04-08T06:02:39;53948.50;;;-146.31;57.27
2036;BME280;23642;42.658;23.350;2023-04-08T06:05:07;53971.22;;;-146.31;57.31
2036;BME280;23642;42.658;23.350;2023-04-08T06:07:33;54002.19;;;-146.31;57.11
2036;BME280;23642;42.658;23.350;2023-04-08T06:10:00;53985.66;;;-146.31;57.58
2036;BME280;23642;42.658;23.350;2023-04-08T06:12:27;54020.75;;;-146.31;57.97
2036;BME280;23642;42.658;23.350;2023-04-08T06:14:54;54022.81;;;-146.31;58.03
2036;BME280;23642;42.658;23.350;2023-04-08T06:17:22;53973.28;;;-146.31;57.71
2036;BME280;23642;42.658;23.350;2023-04-08T06:19:49;53998.06;;;-146.31;58.96
2036;BME280;23642;42.658;23.350;2023-04-08T06:22:16;53989.78;;;-146.31;58.58
2036;BME280;23642;42.658;23.350;2023-04-08T06:24:43;53960.88;;;-146.31;58.56
2036;BME280;23642;42.658;23.350;2023-04-08T06:27:10;53975.34;;;-146.31;58.96
2036;BME280;23642;42.658;23.350;2023-04-08T06:29:37;53948.50;;;-146.31;58.62
2036;BME280;23642;42.658;23.350;2023-04-08T06:32:04;53954.69;;;-146.31;57.49
2036;BME280;23642;42.658;23.350;2023-04-08T06:34:32;53923.72;;;-146.31;58.38
2036;BME280;23642;42.658;23.350;2023-04-08T06:36:59;53898.94;;;-146.31;57.68
2036;BME280;23642;42.658;23.350;2023-04-08T06:39:26;53851.47;;;-146.31;56.61
2036;BME280;23642;42.658;23.350;2023-04-08T06:41:54;53791.59;;;-146.31;57.21
2036;BME280;23642;42.658;23.350;2023-04-08T06:44:20;53760.63;;;-146.31;55.72
2036;BME280;23642;42.658;23.350;2023-04-08T06:46:47;53768.91;;;-146.31;55.34
2036;BME280;23642;42.658;23.350;2023-04-08T06:49:14;53832.88;;;-146.31;55.61
2036;BME280;23642;42.658;23.350;2023-04-08T06:51:44;53832.88;;;-146.31;55.82
2036;BME280;23642;42.658;23.350;2023-04-08T06:54:10;53890.69;;;-146.31;57.19
2036;BME280;23642;42.658;23.350;2023-04-08T06:56:37;53841.16;;;-146.31;57.33
2036;BME280;23642;42.658;23.350;2023-04-08T06:59:04;53896.88;;;-146.31;57.56
2036;BME280;23642;42.658;23.350;2023-04-08T07:01:31;53880.38;;;-146.31;57.83
2036;BME280;23642;42.658;23.350;2023-04-08T07:03:57;53872.13;;;-146.31;58.58
2036;BME280;23642;42.658;23.350;2023-04-08T07:06:26;53876.25;;;-146.31;58.78
2036;BME280;23642;42.658;23.350;2023-04-08T07:08:54;53861.78;;;-146.31;58.68
2036;BME280;23642;42.658;23.350;2023-04-08T07:11:21;53834.94;;;-146.31;58.17
2036;BME280;23642;42.658;23.350;2023-04-08T07:13:47;53816.38;;;-146.31;57.62
2036;BME280;23642;42.658;23.350;2023-04-08T07:16:15;53843.22;;;-146.31;57.21
2036;BME280;23642;42.658;23.350;2023-04-08T07:18:45;53777.16;;;-146.31;57.61
2036;BME280;23642;42.658;23.350;2023-04-08T07:21:12;53783.34;;;-146.31;56.27
2036;BME280;23642;42.658;23.350;2023-04-08T07:23:40;53799.84;;;-146.31;56.37
2036;BME280;23642;42.658;23.350;2023-04-08T07:26:08;53804.00;;;-146.31;57.06
2036;BME280;23642;42.658;23.350;2023-04-08T07:28:35;53874.19;;;-146.31;57.27
2036;BME280;23642;42.658;23.350;2023-04-08T07:31:09;53851.47;;;-146.31;56.70
2036;BME280;23642;42.658;23.350;2023-04-08T07:33:36;53808.13;;;-146.31;56.62
2036;BME280;23642;42.658;23.350;2023-04-08T07:36:03;53770.97;;;-146.31;55.90
2036;BME280;23642;42.658;23.350;2023-04-08T07:38:30;53744.13;;;-146.31;54.14
2036;BME280;23642;42.658;23.350;2023-04-08T07:40:56;53808.13;;;-146.31;53.88
2036;BME280;23642;42.658;23.350;2023-04-08T07:43:24;53735.88;;;-146.31;53.86
2036;BME280;23642;42.658;23.350;2023-04-08T07:45:52;53841.16;;;-146.31;53.48
2036;BME280;23642;42.658;23.350;2023-04-08T07:48:18;53832.88;;;-146.31;54.46
2036;BME280;23642;42.658;23.350;2023-04-08T07:50:45;53785.41;;;-146.31;53.33
2036;BME280;23642;42.658;23.350;2023-04-08T07:53:12;53762.69;;;-146.31;52.75
2036;BME280;23642;42.658;23.350;2023-04-08T07:55:40;53762.69;;;-146.31;51.59
2036;BME280;23642;42.658;23.350;2023-04-08T07:58:07;53911.34;;;-146.31;52.58
2036;BME280;23642;42.658;23.350;2023-04-08T08:00:37;53851.47;;;-146.31;52.73
2036;BME280;23642;42.658;23.350;2023-04-08T08:03:05;53775.09;;;-146.31;52.28
2036;BME280;23642;42.658;23.350;2023-04-08T08:05:32;53754.44;;;-146.31;52.48
2036;BME280;23642;42.658;23.350;2023-04-08T08:07:59;53775.09;;;-146.31;51.59
2036;BME280;23642;42.658;23.350;2023-04-08T08:10:26;53760.63;;;-146.31;52.51
2036;BME280;23642;42.658;23.350;2023-04-08T08:12:53;53737.94;;;-146.31;50.44
2036;BME280;23642;42.658;23.350;2023-04-08T08:15:20;53770.97;;;-146.31;50.35
2036;BME280;23642;42.658;23.350;2023-04-08T08:17:49;53832.88;;;-146.31;51.09
2036;BME280;23642;42.658;23.350;2023-04-08T08:20:15;53820.50;;;-146.31;51.10
2036;BME280;23642;42.658;23.350;2023-04-08T08:22:42;53758.56;;;-146.31;51.01
2036;BME280;23642;42.658;23.350;2023-04-08T08:25:10;53709.03;;;-146.31;49.25
2036;BME280;23642;42.658;23.350;2023-04-08T08:27:36;53721.41;;;-146.31;47.46
2036;BME280;23642;42.658;23.350;2023-04-08T08:30:06;53787.47;;;-146.31;46.20
2036;BME280;23642;42.658;23.350;2023-04-08T08:32:33;53799.84;;;-146.31;47.42
2036;BME280;23642;42.658;23.350;2023-04-08T08:35:02;53849.41;;;-146.31;48.85
2036;BME280;23642;42.658;23.350;2023-04-08T08:37:29;53855.59;;;-146.31;50.44
2036;BME280;23642;42.658;23.350;2023-04-08T08:40:01;53878.31;;;-146.31;50.47
2036;BME280;23642;42.658;23.350;2023-04-08T08:42:29;53828.75;;;-146.31;50.38
2036;BME280;23642;42.658;23.350;2023-04-08T08:44:56;53828.75;;;-146.31;49.42
2036;BME280;23642;42.658;23.350;2023-04-08T08:47:22;53901.03;;;-146.31;50.24
2036;BME280;23642;42.658;23.350;2023-04-08T08:49:49;53874.19;;;-146.31;50.86
2036;BME280;23642;42.658;23.350;2023-04-08T08:52:17;53847.34;;;-146.31;51.00
2036;BME280;23642;42.658;23.350;2023-04-08T08:54:45;53863.84;;;-146.31;50.74
2036;BME280;23642;42.658;23.350;2023-04-08T08:57:18;53870.06;;;-146.31;51.93
2036;BME280;23642;42.658;23.350;2023-04-08T08:59:46;53826.69;;;-146.31;51.78
2036;BME280;23642;42.658;23.350;2023-04-08T09:02:24;53847.34;;;-146.31;51.67
2036;BME280;23642;42.658;23.350;2023-04-08T09:05:00;53872.13;;;-146.31;51.66
2036;BME280;23642;42.658;23.350;2023-04-08T09:07:30;53874.19;;;-146.31;53.13
2036;BME280;23642;42.658;23.350;2023-04-08T09:09:58;53834.94;;;-146.31;52.38
2036;BME280;23642;42.658;23.350;2023-04-08T09:12:26;53985.66;;;-146.31;53.67
2036;BME280;23642;42.658;23.350;2023-04-08T09:15:02;53867.97;;;-146.31;52.18
2036;BME280;23642;42.658;23.350;2023-04-08T09:17:31;53915.47;;;-146.31;52.17
2036;BME280;23642;42.658;23.350;2023-04-08T09:20:06;53876.25;;;-146.31;52.85
2036;BME280;23642;42.658;23.350;2023-04-08T09:22:57;53898.94;;;-146.31;50.51
2036;BME280;23642;42.658;23.350;2023-04-08T09:25:26;53971.22;;;-146.31;52.02
2036;BME280;23642;42.658;23.350;2023-04-08T09:27:55;53847.34;;;-146.31;51.85
2036;BME280;23642;42.658;23.350;2023-04-08T09:30:23;53766.81;;;-146.31;49.81
2036;BME280;23642;42.658;23.350;2023-04-08T09:32:55;53865.91;;;-146.31;48.26
2036;BME280;23642;42.658;23.350;2023-04-08T09:35:23;53834.94;;;-146.31;48.64
2036;BME280;23642;42.658;23.350;2023-04-08T09:37:51;53748.25;;;-146.31;48.12
2036;BME280;23642;42.658;23.350;2023-04-08T09:40:19;53690.44;;;-146.31;47.39
2036;BME280;23642;42.658;23.350;2023-04-08T09:42:48;53700.75;;;-146.31;47.86
2036;BME280;23642;42.658;23.350;2023-04-08T09:45:18;53696.63;;;-146.31;47.30
2036;BME280;23642;42.658;23.350;2023-04-08T09:47:56;53816.38;;;-146.31;47.00
2036;BME280;23642;42.658;23.350;2023-04-08T09:50:26;53952.63;;;-146.31;50.54
2036;BME280;23642;42.658;23.350;2023-04-08T09:53:00;53907.22;;;-146.31;51.10
2036;BME280;23642;42.658;23.350;2023-04-08T09:55:29;53832.88;;;-146.31;49.88
2036;BME280;23642;42.658;23.350;2023-04-08T09:58:00;53896.88;;;-146.31;51.02
2036;BME280;23642;42.658;23.350;2023-04-08T10:00:31;53993.91;;;-146.31;51.54
2036;BME280;23642;42.658;23.350;2023-04-08T10:03:05;53956.75;;;-146.31;51.36
2036;BME280;23642;42.658;23.350;2023-04-08T10:05:36;53890.69;;;-146.31;51.89
2036;BME280;23642;42.658;23.350;2023-04-08T10:08:04;54035.22;;;-146.31;52.85
2036;BME280;23642;42.658;23.350;2023-04-08T10:10:33;53993.91;;;-146.31;52.51
2036;BME280;23642;42.658;23.350;2023-04-08T10:13:01;53981.53;;;-146.31;51.81
2036;BME280;23642;42.658;23.350;2023-04-08T10:15:29;54002.19;;;-146.31;52.03
2036;BME280;23642;42.658;23.350;2023-04-08T10:18:30;53973.28;;;-146.31;50.96
2036;BME280;23642;42.658;23.350;2023-04-08T10:21:00;53973.28;;;-146.31;51.08
2036;BME280;23642;42.658;23.350;2023-04-08T10:23:55;53956.75;;;-146.31;51.41
2036;BME280;23642;42.658;23.350;2023-04-08T10:26:33;53981.53;;;-146.31;50.89
2036;BME280;23642;42.658;23.350;2023-04-08T10:32:26;53865.91;;;-146.31;48.24
2036;BME280;23642;42.658;23.350;2023-04-08T10:34:54;53806.06;;;-146.31;48.16
2036;BME280;23642;42.658;23.350;2023-04-08T10:37:21;53841.16;;;-146.31;47.10
2036;BME280;23642;42.658;23.350;2023-04-08T10:39:49;53925.78;;;-146.31;48.45
2036;BME280;23642;42.658;23.350;2023-04-08T10:42:29;53927.84;;;-146.31;48.95
2036;BME280;23642;42.658;23.350;2023-04-08T10:45:00;53985.66;;;-146.31;49.48
2036;BME280;23642;42.658;23.350;2023-04-08T10:47:27;54014.56;;;-146.31;48.96
2036;BME280;23642;42.658;23.350;2023-04-08T10:49:54;54047.59;;;-146.31;49.68
2036;BME280;23642;42.658;23.350;2023-04-08T10:52:22;53985.66;;;-146.31;48.91
2036;BME280;23642;42.658;23.350;2023-04-08T10:54:52;53927.84;;;-146.31;48.26
2036;BME280;23642;42.658;23.350;2023-04-08T10:57:23;53898.94;;;-146.31;48.60
2036;BME280;23642;42.658;23.350;2023-04-08T10:59:54;54022.81;;;-146.31;48.90
2036;BME280;23642;42.658;23.350;2023-04-08T11:02:31;53996.00;;;-146.31;49.90
2036;BME280;23642;42.658;23.350;2023-04-08T11:04:58;53993.91;;;-146.31;49.87
2036;BME280;23642;42.658;23.350;2023-04-08T11:07:25;53890.69;;;-146.31;48.81
2036;BME280;23642;42.658;23.350;2023-04-08T11:09:55;53907.22;;;-146.31;47.67
2036;BME280;23642;42.658;23.350;2023-04-08T11:12:25;53851.47;;;-146.31;46.90
2036;BME280;23642;42.658;23.350;2023-04-08T11:14:54;53857.66;;;-146.31;46.35
2036;BME280;23642;42.658;23.350;2023-04-08T11:17:24;54006.31;;;-146.31;45.24
2036;BME280;23642;42.658;23.350;2023-04-08T11:19:54;54035.22;;;-146.31;45.77
2036;BME280;23642;42.658;23.350;2023-04-08T11:22:30;54004.25;;;-146.31;45.54
2036;BME280;23642;42.658;23.350;2023-04-08T11:25:02;53913.41;;;-146.31;44.23
2036;BME280;23642;42.658;23.350;2023-04-08T11:27:33;54086.81;;;-146.31;42.81
2036;BME280;23642;42.658;23.350;2023-04-08T11:30:08;54064.13;;;-146.31;43.09
2036;BME280;23642;42.658;23.350;2023-04-08T11:32:38;54311.88;;;-146.31;43.67
2036;BME280;23642;42.658;23.350;2023-04-08T11:35:05;54237.53;;;-146.31;43.94
2036;BME280;23642;42.658;23.350;2023-04-08T11:37:36;54225.16;;;-146.31;44.04
2036;BME280;23642;42.658;23.350;2023-04-08T11:40:08;54113.66;;;-146.31;43.52
2036;BME280;23642;42.658;23.350;2023-04-08T11:42:35;54068.25;;;-146.31;43.01
2036;BME280;23642;42.658;23.350;2023-04-08T11:45:10;54167.34;;;-146.31;42.44
2036;BME280;23642;42.658;23.350;2023-04-08T11:47:37;54330.47;;;-146.31;41.75
2036;BME280;23642;42.658;23.350;2023-04-08T11:50:06;54303.63;;;-146.31;41.93
2036;BME280;23642;42.658;23.350;2023-04-08T11:52:43;54349.03;;;-146.31;42.24
2036;BME280;23642;42.658;23.350;2023-04-08T11:55:11;54382.09;;;-146.31;42.99
2036;BME280;23642;42.658;23.350;2023-04-08T11:57:38;54421.31;;;-146.31;44.07
2036;BME280;23642;42.658;23.350;2023-04-08T12:00:09;54336.66;;;-146.31;44.13
2036;BME280;23642;42.658;23.350;2023-04-08T12:02:38;54299.50;;;-146.31;44.24
2036;BME280;23642;42.658;23.350;2023-04-08T12:05:07;54243.75;;;-146.31;44.64
2036;BME280;23642;42.658;23.350;2023-04-08T12:07:34;54194.19;;;-146.31;42.68
2036;BME280;23642;42.658;23.350;2023-04-08T12:10:03;54138.44;;;-146.31;42.74
2036;BME280;23642;42.658;23.350;2023-04-08T12:12:30;54142.56;;;-146.31;42.94
2036;BME280;23642;42.658;23.350;2023-04-08T12:14:57;54214.84;;;-146.31;42.49
2036;BME280;23642;42.658;23.350;2023-04-08T12:17:24;54202.44;;;-146.31;42.29
2036;BME280;23642;42.658;23.350;2023-04-08T12:19:52;54357.31;;;-146.31;43.18
2036;BME280;23642;42.658;23.350;2023-04-08T12:22:19;54274.72;;;-146.31;43.09
2036;BME280;23642;42.658;23.350;2023-04-08T12:24:46;54338.72;;;-146.31;42.23
2036;BME280;23642;42.658;23.350;2023-04-08T12:27:13;54388.28;;;-146.31;42.99
2036;BME280;23642;42.658;23.350;2023-04-08T12:29:40;54433.69;;;-146.31;43.01
2036;BME280;23642;42.658;23.350;2023-04-08T12:32:08;54479.13;;;-146.31;42.67
2036;BME280;23642;42.658;23.350;2023-04-08T12:34:34;54444.03;;;-146.31;44.81
2036;BME280;23642;42.658;23.350;2023-04-08T12:37:02;54485.31;;;-146.31;44.75
2036;BME280;23642;42.658;23.350;2023-04-08T12:39:30;54479.13;;;-146.31;44.76
2036;BME280;23642;42.658;23.350;2023-04-08T12:41:56;54505.97;;;-146.31;44.25
2036;BME280;23642;42.658;23.350;2023-04-08T12:44:23;54508.03;;;-146.31;44.76
2036;BME280;23642;42.658;23.350;2023-04-08T12:46:50;54468.81;;;-146.31;44.66
2036;BME280;23642;42.658;23.350;2023-04-08T12:49:17;54503.91;;;-146.31;45.01
2036;BME280;23642;42.658;23.350;2023-04-08T12:51:44;54499.78;;;-146.31;46.63